sensor_id;sensor_type;location;lat;lon;timestamp;P1;durP1;ratioP1;P2;durP2;ratioP2
68976;SDS011;56029;52.568;13.588;2024-03-08T00:01:57;27.70;;;12.32;;
68976;SDS011;56029;52.568;13.588;2024-03-08T00:04:22;28.50;;;12.13;;
68976;SDS011;56029;52.568;13.588;2024-03-08T00:06:48;26.65;;;11.32;;
68976;SDS011;56029;52.568;13.588;2024-03-08T00:09:14;27.77;;;11.90;;
68976;SDS011;56029;52.568;13.588;2024-03-08T00:11:39;24.63;;;11.33;;
68976;SDS011;56029;52.568;13.588;2024-03-08T00:14:05;27.25;;;11.77;;
68976;SDS011;56029;52.568;13.588;2024-03-08T00:16:30;28.40;;;12.23;;
68976;SDS011;56029;52.568;13.588;2024-03-08T00:18:56;27.90;;;12.17;;
68976;SDS011;56029;52.568;13.588;2024-03-08T00:21:22;29.65;;;12.55;;
68976;SDS011;56029;52.568;13.588;2024-03-08T00:23:47;28.30;;;12.13;;
68976;SDS011;56029;52.568;13.588;2024-03-08T00:26:13;28.35;;;12.57;;
68976;SDS011;56029;52.568;13.588;2024-03-08T00:28:38;27.13;;;11.73;;
68976;SDS011;56029;52.568;13.588;2024-03-08T00:31:04;28.97;;;12.93;;
68976;SDS011;56029;52.568;13.588;2024-03-08T00:33:29;27.33;;;12.07;;
68976;SDS011;56029;52.568;13.588;2024-03-08T00:35:55;28.70;;;13.10;;
68976;SDS011;56029;52.568;13.588;2024-03-08T00:38:21;30.10;;;12.37;;
68976;SDS011;56029;52.568;13.588;2024-03-08T00:40:46;25.35;;;11.10;;
68976;SDS011;56029;52.568;13.588;2024-03-08T00:43:12;26.27;;;11.70;;
68976;SDS011;56029;52.568;13.588;2024-03-08T00:45:38;28.15;;;11.57;;
68976;SDS011;56029;52.568;13.588;2024-03-08T00:48:03;27.07;;;11.93;;
68976;SDS011;56029;52.568;13.588;2024-03-08T00:50:29;30.23;;;12.82;;
68976;SDS011;56029;52.568;13.588;2024-03-08T00:52:55;30.17;;;13.30;;
68976;SDS011;56029;52.568;13.588;2024-03-08T00:55:20;31.40;;;12.73;;
68976;SDS011;56029;52.568;13.588;2024-03-08T00:57:46;29.48;;;12.93;;
68976;SDS011;56029;52.568;13.588;2024-03-08T01:00:12;31.67;;;13.03;;
68976;SDS011;56029;52.568;13.588;2024-03-08T01:02:38;29.67;;;13.35;;
68976;SDS011;56029;52.568;13.588;2024-03-08T01:05:04;28.88;;;12.60;;
68976;SDS011;56029;52.568;13.588;2024-03-08T01:07:30;30.30;;;12.47;;
68976;SDS011;56029;52.568;13.588;2024-03-08T01:09:56;29.40;;;12.60;;
68976;SDS011;56029;52.568;13.588;2024-03-08T01:12:21;27.77;;;13.30;;
68976;SDS011;56029;52.568;13.588;2024-03-08T01:14:47;32.47;;;12.82;;
68976;SDS011;56029;52.568;13.588;2024-03-08T01:17:13;30.07;;;12.53;;
68976;SDS011;56029;52.568;13.588;2024-03-08T01:19:38;32.33;;;12.73;;
68976;SDS011;56029;52.568;13.588;2024-03-08T01:22:04;29.33;;;13.32;;
68976;SDS011;56029;52.568;13.588;2024-03-08T01:24:30;30.77;;;12.53;;
68976;SDS011;56029;52.568;13.588;2024-03-08T01:26:55;31.83;;;13.52;;
68976;SDS011;56029;52.568;13.588;2024-03-08T01:29:21;30.90;;;12.80;;
68976;SDS011;56029;52.568;13.588;2024-03-08T01:31:46;29.53;;;12.60;;
68976;SDS011;56029;52.568;13.588;2024-03-08T01:34:12;30.55;;;13.48;;
68976;SDS011;56029;52.568;13.588;2024-03-08T01:36:37;29.83;;;12.90;;
68976;SDS011;56029;52.568;13.588;2024-03-08T01:39:03;31.85;;;12.43;;
68976;SDS011;56029;52.568;13.588;2024-03-08T01:41:29;26.75;;;12.30;;
68976;SDS011;56029;52.568;13.588;2024-03-08T01:43:54;29.93;;;13.07;;
68976;SDS011;56029;52.568;13.588;2024-03-08T01:46:20;28.65;;;12.50;;
68976;SDS011;56029;52.568;13.588;2024-03-08T01:48:47;32.57;;;13.00;;
68976;SDS011;56029;52.568;13.588;2024-03-08T01:51:14;29.80;;;12.93;;
68976;SDS011;56029;52.568;13.588;2024-03-08T01:53:39;32.53;;;12.68;;
68976;SDS011;56029;52.568;13.588;2024-03-08T01:56:06;29.50;;;12.32;;
68976;SDS011;56029;52.568;13.588;2024-03-08T01:58:33;31.35;;;12.68;;
68976;SDS011;56029;52.568;13.588;2024-03-08T02:00:58;32.67;;;13.47;;
68976;SDS011;56029;52.568;13.588;2024-03-08T02:03:25;31.58;;;13.02;;
68976;SDS011;56029;52.568;13.588;2024-03-08T02:05:50;32.73;;;13.70;;
68976;SDS011;56029;52.568;13.588;2024-03-08T02:08:16;30.75;;;13.75;;
68976;SDS011;56029;52.568;13.588;2024-03-08T02:10:45;35.47;;;13.82;;
68976;SDS011;56029;52.568;13.588;2024-03-08T02:13:11;34.07;;;14.70;;
68976;SDS011;56029;52.568;13.588;2024-03-08T02:18:19;35.25;;;14.57;;
68976;SDS011;56029;52.568;13.588;2024-03-08T02:20:47;39.40;;;14.63;;
68976;SDS011;56029;52.568;13.588;2024-03-08T02:23:22;32.55;;;13.48;;
68976;SDS011;56029;52.568;13.588;2024-03-08T02:25:48;33.30;;;15.23;;
68976;SDS011;56029;52.568;13.588;2024-03-08T02:28:14;36.23;;;15.53;;
68976;SDS011;56029;52.568;13.588;2024-03-08T02:30:40;34.55;;;14.45;;
68976;SDS011;56029;52.568;13.588;2024-03-08T02:33:06;34.30;;;14.38;;
68976;SDS011;56029;52.568;13.588;2024-03-08T02:35:33;37.08;;;14.52;;
68976;SDS011;56029;52.568;13.588;2024-03-08T02:37:59;34.35;;;14.90;;
68976;SDS011;56029;52.568;13.588;2024-03-08T02:40:25;37.15;;;15.55;;
68976;SDS011;56029;52.568;13.588;2024-03-08T02:42:50;35.93;;;15.10;;
68976;SDS011;56029;52.568;13.588;2024-03-08T02:45:16;32.78;;;14.63;;
68976;SDS011;56029;52.568;13.588;2024-03-08T02:47:42;34.13;;;14.97;;
68976;SDS011;56029;52.568;13.588;2024-03-08T02:50:07;35.45;;;14.40;;
68976;SDS011;56029;52.568;13.588;2024-03-08T02:52:34;36.50;;;14.77;;
68976;SDS011;56029;52.568;13.588;2024-03-08T02:54:59;32.83;;;13.57;;
68976;SDS011;56029;52.568;13.588;2024-03-08T02:57:25;33.78;;;14.82;;
68976;SDS011;56029;52.568;13.588;2024-03-08T02:59:50;37.27;;;14.10;;
68976;SDS011;56029;52.568;13.588;2024-03-08T03:02:16;36.43;;;14.50;;
68976;SDS011;56029;52.568;13.588;2024-03-08T03:04:42;33.30;;;13.93;;
68976;SDS011;56029;52.568;13.588;2024-03-08T03:07:07;32.45;;;13.93;;
68976;SDS011;56029;52.568;13.588;2024-03-08T03:09:33;35.67;;;14.40;;
68976;SDS011;56029;52.568;13.588;2024-03-08T03:11:59;37.42;;;15.20;;
68976;SDS011;56029;52.568;13.588;2024-03-08T03:14:24;35.40;;;14.30;;
68976;SDS011;56029;52.568;13.588;2024-03-08T03:16:50;35.97;;;14.52;;
68976;SDS011;56029;52.568;13.588;2024-03-08T03:19:16;39.50;;;15.03;;
68976;SDS011;56029;52.568;13.588;2024-03-08T03:21:41;36.47;;;14.80;;
68976;SDS011;56029;52.568;13.588;2024-03-08T03:24:07;35.87;;;15.17;;
68976;SDS011;56029;52.568;13.588;2024-03-08T03:26:32;34.47;;;15.43;;
68976;SDS011;56029;52.568;13.588;2024-03-08T03:28:58;33.67;;;14.40;;
68976;SDS011;56029;52.568;13.588;2024-03-08T03:31:24;35.07;;;14.97;;
68976;SDS011;56029;52.568;13.588;2024-03-08T03:33:49;34.17;;;14.33;;
68976;SDS011;56029;52.568;13.588;2024-03-08T03:36:15;35.20;;;14.75;;
68976;SDS011;56029;52.568;13.588;2024-03-08T03:38:40;36.60;;;14.50;;
68976;SDS011;56029;52.568;13.588;2024-03-08T03:41:06;37.00;;;14.82;;
68976;SDS011;56029;52.568;13.588;2024-03-08T03:43:31;35.93;;;15.87;;
68976;SDS011;56029;52.568;13.588;2024-03-08T03:45:57;37.72;;;15.25;;
68976;SDS011;56029;52.568;13.588;2024-03-08T03:48:23;35.80;;;15.88;;
68976;SDS011;56029;52.568;13.588;2024-03-08T03:50:48;37.63;;;15.53;;
68976;SDS011;56029;52.568;13.588;2024-03-08T03:53:14;43.23;;;16.50;;
68976;SDS011;56029;52.568;13.588;2024-03-08T03:55:40;35.47;;;14.85;;
68976;SDS011;56029;52.568;13.588;2024-03-08T03:58:05;36.13;;;15.87;;
68976;SDS011;56029;52.568;13.588;2024-03-08T04:00:31;40.47;;;16.23;;
68976;SDS011;56029;52.568;13.588;2024-03-08T04:02:56;41.40;;;16.70;;
68976;SDS011;56029;52.568;13.588;2024-03-08T04:05:22;38.22;;;16.13;;
68976;SDS011;56029;52.568;13.588;2024-03-08T04:07:48;33.80;;;15.10;;
68976;SDS011;56029;52.568;13.588;2024-03-08T04:10:13;37.87;;;15.53;;
68976;SDS011;56029;52.568;13.588;2024-03-08T04:12:39;34.80;;;14.82;;
68976;SDS011;56029;52.568;13.588;2024-03-08T04:15:04;36.70;;;15.47;;
68976;SDS011;56029;52.568;13.588;2024-03-08T04:17:30;40.33;;;15.13;;
68976;SDS011;56029;52.568;13.588;2024-03-08T04:19:56;38.17;;;16.80;;
68976;SDS011;56029;52.568;13.588;2024-03-08T04:22:21;38.00;;;15.37;;
68976;SDS011;56029;52.568;13.588;2024-03-08T04:24:47;37.70;;;15.88;;
68976;SDS011;56029;52.568;13.588;2024-03-08T04:27:13;37.30;;;16.03;;
68976;SDS011;56029;52.568;13.588;2024-03-08T04:29:39;39.95;;;16.25;;
68976;SDS011;56029;52.568;13.588;2024-03-08T04:32:04;37.33;;;16.20;;
68976;SDS011;56029;52.568;13.588;2024-03-08T04:34:31;38.20;;;15.98;;
68976;SDS011;56029;52.568;13.588;2024-03-08T04:36:57;36.60;;;14.73;;
68976;SDS011;56029;52.568;13.588;2024-03-08T04:39:23;34.45;;;14.50;;
68976;SDS011;56029;52.568;13.588;2024-03-08T04:41:49;38.20;;;15.60;;
68976;SDS011;56029;52.568;13.588;2024-03-08T04:44:15;38.85;;;16.08;;
68976;SDS011;56029;52.568;13.588;2024-03-08T04:46:41;42.33;;;18.35;;
68976;SDS011;56029;52.568;13.588;2024-03-08T04:49:07;38.37;;;16.33;;
68976;SDS011;56029;52.568;13.588;2024-03-08T04:51:32;38.15;;;16.55;;
68976;SDS011;56029;52.568;13.588;2024-03-08T04:53:58;40.73;;;16.77;;
68976;SDS011;56029;52.568;13.588;2024-03-08T04:56:24;36.55;;;15.57;;
68976;SDS011;56029;52.568;13.588;2024-03-08T04:58:49;41.03;;;16.07;;
68976;SDS011;56029;52.568;13.588;2024-03-08T05:01:15;37.27;;;16.17;;
68976;SDS011;56029;52.568;13.588;2024-03-08T05:03:41;38.53;;;16.60;;
68976;SDS011;56029;52.568;13.588;2024-03-08T05:06:06;39.77;;;15.90;;
68976;SDS011;56029;52.568;13.588;2024-03-08T05:08:32;37.13;;;15.45;;
68976;SDS011;56029;52.568;13.588;2024-03-08T05:10:57;39.20;;;16.60;;
68976;SDS011;56029;52.568;13.588;2024-03-08T05:13:23;46.77;;;18.67;;
68976;SDS011;56029;52.568;13.588;2024-03-08T05:15:49;39.60;;;16.48;;
68976;SDS011;56029;52.568;13.588;2024-03-08T05:18:15;38.77;;;15.97;;
68976;SDS011;56029;52.568;13.588;2024-03-08T05:20:40;41.42;;;17.35;;
68976;SDS011;56029;52.568;13.588;2024-03-08T05:23:06;44.47;;;17.83;;
68976;SDS011;56029;52.568;13.588;2024-03-08T05:25:32;45.13;;;18.30;;
68976;SDS011;56029;52.568;13.588;2024-03-08T05:27:58;37.65;;;16.73;;
68976;SDS011;56029;52.568;13.588;2024-03-08T05:30:23;39.10;;;17.80;;
68976;SDS011;56029;52.568;13.588;2024-03-08T05:32:49;39.88;;;17.35;;
68976;SDS011;56029;52.568;13.588;2024-03-08T05:35:14;38.92;;;16.30;;
68976;SDS011;56029;52.568;13.588;2024-03-08T05:37:40;44.90;;;17.90;;
68976;SDS011;56029;52.568;13.588;2024-03-08T05:40:06;42.22;;;18.23;;
68976;SDS011;56029;52.568;13.588;2024-03-08T05:42:32;41.27;;;16.73;;
68976;SDS011;56029;52.568;13.588;2024-03-08T05:44:58;45.42;;;18.35;;
68976;SDS011;56029;52.568;13.588;2024-03-08T05:47:23;44.83;;;18.00;;
68976;SDS011;56029;52.568;13.588;2024-03-08T05:49:49;47.77;;;18.83;;
68976;SDS011;56029;52.568;13.588;2024-03-08T05:52:15;48.10;;;19.90;;
68976;SDS011;56029;52.568;13.588;2024-03-08T05:54:40;44.43;;;19.23;;
68976;SDS011;56029;52.568;13.588;2024-03-08T05:57:06;42.78;;;18.27;;
68976;SDS011;56029;52.568;13.588;2024-03-08T05:59:31;46.77;;;18.07;;
68976;SDS011;56029;52.568;13.588;2024-03-08T06:01:57;41.58;;;18.92;;
68976;SDS011;56029;52.568;13.588;2024-03-08T06:04:23;43.40;;;19.03;;
68976;SDS011;56029;52.568;13.588;2024-03-08T06:06:48;44.93;;;19.10;;
68976;SDS011;56029;52.568;13.588;2024-03-08T06:09:14;47.40;;;18.77;;
68976;SDS011;56029;52.568;13.588;2024-03-08T06:11:39;48.30;;;18.85;;
68976;SDS011;56029;52.568;13.588;2024-03-08T06:14:05;43.60;;;18.70;;
68976;SDS011;56029;52.568;13.588;2024-03-08T06:16:31;51.50;;;20.55;;
68976;SDS011;56029;52.568;13.588;2024-03-08T06:18:56;49.33;;;19.83;;
68976;SDS011;56029;52.568;13.588;2024-03-08T06:21:22;47.25;;;19.77;;
68976;SDS011;56029;52.568;13.588;2024-03-08T06:23:51;48.20;;;20.15;;
68976;SDS011;56029;52.568;13.588;2024-03-08T06:26:21;47.30;;;19.83;;
68976;SDS011;56029;52.568;13.588;2024-03-08T06:28:46;43.90;;;18.33;;
68976;SDS011;56029;52.568;13.588;2024-03-08T06:31:13;41.67;;;18.52;;
68976;SDS011;56029;52.568;13.588;2024-03-08T06:33:38;41.70;;;18.93;;
68976;SDS011;56029;52.568;13.588;2024-03-08T06:36:04;48.17;;;20.02;;
68976;SDS011;56029;52.568;13.588;2024-03-08T06:38:30;49.15;;;20.65;;
68976;SDS011;56029;52.568;13.588;2024-03-08T06:40:55;48.10;;;19.67;;
68976;SDS011;56029;52.568;13.588;2024-03-08T06:43:21;46.07;;;19.03;;
68976;SDS011;56029;52.568;13.588;2024-03-08T06:45:47;45.42;;;19.83;;
68976;SDS011;56029;52.568;13.588;2024-03-08T06:48:13;46.38;;;19.92;;
68976;SDS011;56029;52.568;13.588;2024-03-08T06:50:43;40.63;;;18.77;;
68976;SDS011;56029;52.568;13.588;2024-03-08T06:53:12;47.60;;;21.47;;
68976;SDS011;56029;52.568;13.588;2024-03-08T06:55:40;48.83;;;20.67;;
68976;SDS011;56029;52.568;13.588;2024-03-08T06:58:06;47.13;;;21.20;;
68976;SDS011;56029;52.568;13.588;2024-03-08T07:00:32;52.35;;;21.38;;
68976;SDS011;56029;52.568;13.588;2024-03-08T07:02:57;50.67;;;21.88;;
68976;SDS011;56029;52.568;13.588;2024-03-08T07:05:23;49.13;;;21.23;;
68976;SDS011;56029;52.568;13.588;2024-03-08T07:07:49;53.00;;;22.38;;
68976;SDS011;56029;52.568;13.588;2024-03-08T07:10:14;48.47;;;22.10;;
68976;SDS011;56029;52.568;13.588;2024-03-08T07:12:40;49.17;;;22.30;;
68976;SDS011;56029;52.568;13.588;2024-03-08T07:15:06;49.65;;;21.40;;
68976;SDS011;56029;52.568;13.588;2024-03-08T07:17:32;47.38;;;20.70;;
68976;SDS011;56029;52.568;13.588;2024-03-08T07:19:58;47.83;;;21.27;;
68976;SDS011;56029;52.568;13.588;2024-03-08T07:22:23;48.95;;;21.25;;
68976;SDS011;56029;52.568;13.588;2024-03-08T07:24:49;50.28;;;21.08;;
68976;SDS011;56029;52.568;13.588;2024-03-08T07:27:14;46.63;;;20.43;;
68976;SDS011;56029;52.568;13.588;2024-03-08T07:29:40;45.40;;;20.48;;
68976;SDS011;56029;52.568;13.588;2024-03-08T07:32:05;47.13;;;20.47;;
68976;SDS011;56029;52.568;13.588;2024-03-08T07:34:31;45.95;;;20.27;;
68976;SDS011;56029;52.568;13.588;2024-03-08T07:36:57;44.42;;;20.20;;
68976;SDS011;56029;52.568;13.588;2024-03-08T07:39:23;41.60;;;19.52;;
68976;SDS011;56029;52.568;13.588;2024-03-08T07:41:49;43.00;;;19.27;;
68976;SDS011;56029;52.568;13.588;2024-03-08T07:44:15;48.05;;;19.80;;
68976;SDS011;56029;52.568;13.588;2024-03-08T07:46:40;47.90;;;20.30;;
68976;SDS011;56029;52.568;13.588;2024-03-08T07:49:06;43.47;;;19.35;;
68976;SDS011;56029;52.568;13.588;2024-03-08T07:51:31;48.30;;;21.58;;
68976;SDS011;56029;52.568;13.588;2024-03-08T07:53:57;44.70;;;19.93;;
68976;SDS011;56029;52.568;13.588;2024-03-08T07:56:22;45.72;;;19.77;;
68976;SDS011;56029;52.568;13.588;2024-03-08T07:58:48;44.50;;;19.73;;
68976;SDS011;56029;52.568;13.588;2024-03-08T08:01:17;42.80;;;19.03;;
68976;SDS011;56029;52.568;13.588;2024-03-08T08:03:43;43.95;;;19.05;;
68976;SDS011;56029;52.568;13.588;2024-03-08T08:06:09;41.45;;;18.55;;
68976;SDS011;56029;52.568;13.588;2024-03-08T08:08:35;38.43;;;17.50;;
68976;SDS011;56029;52.568;13.588;2024-03-08T08:11:00;39.58;;;18.45;;
68976;SDS011;56029;52.568;13.588;2024-03-08T08:13:26;43.60;;;18.50;;
68976;SDS011;56029;52.568;13.588;2024-03-08T08:15:54;41.22;;;19.65;;
68976;SDS011;56029;52.568;13.588;2024-03-08T08:18:20;39.53;;;18.25;;
68976;SDS011;56029;52.568;13.588;2024-03-08T08:20:45;42.33;;;18.63;;
68976;SDS011;56029;52.568;13.588;2024-03-08T08:23:11;35.23;;;17.43;;
68976;SDS011;56029;52.568;13.588;2024-03-08T08:25:39;38.53;;;17.65;;
68976;SDS011;56029;52.568;13.588;2024-03-08T08:28:05;39.00;;;17.67;;
68976;SDS011;56029;52.568;13.588;2024-03-08T08:30:31;42.22;;;17.80;;
68976;SDS011;56029;52.568;13.588;2024-03-08T08:32:59;36.40;;;17.70;;
68976;SDS011;56029;52.568;13.588;2024-03-08T08:35:24;39.25;;;16.98;;
68976;SDS011;56029;52.568;13.588;2024-03-08T08:37:50;36.30;;;15.43;;
68976;SDS011;56029;52.568;13.588;2024-03-08T08:40:15;39.35;;;16.85;;
68976;SDS011;56029;52.568;13.588;2024-03-08T08:42:42;32.73;;;15.93;;
68976;SDS011;56029;52.568;13.588;2024-03-08T08:45:08;37.78;;;16.35;;
68976;SDS011;56029;52.568;13.588;2024-03-08T08:47:37;35.08;;;16.25;;
68976;SDS011;56029;52.568;13.588;2024-03-08T08:50:03;32.67;;;14.77;;
68976;SDS011;56029;52.568;13.588;2024-03-08T08:52:29;37.67;;;15.75;;
68976;SDS011;56029;52.568;13.588;2024-03-08T08:54:56;35.25;;;15.60;;
68976;SDS011;56029;52.568;13.588;2024-03-08T08:57:21;33.20;;;15.23;;
68976;SDS011;56029;52.568;13.588;2024-03-08T08:59:47;34.17;;;15.67;;
68976;SDS011;56029;52.568;13.588;2024-03-08T09:02:13;33.45;;;16.48;;
68976;SDS011;56029;52.568;13.588;2024-03-08T09:04:38;33.10;;;15.37;;
68976;SDS011;56029;52.568;13.588;2024-03-08T09:07:04;36.53;;;15.93;;
68976;SDS011;56029;52.568;13.588;2024-03-08T09:09:29;30.50;;;14.77;;
68976;SDS011;56029;52.568;13.588;2024-03-08T09:11:55;36.20;;;15.68;;
68976;SDS011;56029;52.568;13.588;2024-03-08T09:14:20;29.60;;;14.87;;
68976;SDS011;56029;52.568;13.588;2024-03-08T09:16:46;31.83;;;15.50;;
68976;SDS011;56029;52.568;13.588;2024-03-08T09:19:12;33.45;;;15.88;;
68976;SDS011;56029;52.568;13.588;2024-03-08T09:21:38;30.88;;;14.90;;
68976;SDS011;56029;52.568;13.588;2024-03-08T09:24:04;31.73;;;14.07;;
68976;SDS011;56029;52.568;13.588;2024-03-08T09:26:30;31.20;;;14.65;;
68976;SDS011;56029;52.568;13.588;2024-03-08T09:28:55;34.43;;;15.83;;
68976;SDS011;56029;52.568;13.588;2024-03-08T09:31:21;33.47;;;14.73;;
68976;SDS011;56029;52.568;13.588;2024-03-08T09:36:23;28.60;;;14.65;;
68976;SDS011;56029;52.568;13.588;2024-03-08T09:38:48;29.03;;;13.67;;
68976;SDS011;56029;52.568;13.588;2024-03-08T09:41:14;29.42;;;13.05;;
68976;SDS011;56029;52.568;13.588;2024-03-08T09:43:40;29.47;;;13.77;;
68976;SDS011;56029;52.568;13.588;2024-03-08T09:46:06;27.20;;;13.15;;
68976;SDS011;56029;52.568;13.588;2024-03-08T09:48:32;27.17;;;13.40;;
68976;SDS011;56029;52.568;13.588;2024-03-08T09:50:58;26.63;;;13.50;;
68976;SDS011;56029;52.568;13.588;2024-03-08T09:53:24;28.95;;;13.85;;
68976;SDS011;56029;52.568;13.588;2024-03-08T09:55:50;25.90;;;12.90;;
68976;SDS011;56029;52.568;13.588;2024-03-08T09:58:15;30.52;;;13.73;;
68976;SDS011;56029;52.568;13.588;2024-03-08T10:00:42;28.73;;;12.82;;
68976;SDS011;56029;52.568;13.588;2024-03-08T10:03:07;28.23;;;13.40;;
68976;SDS011;56029;52.568;13.588;2024-03-08T10:05:33;26.97;;;13.03;;
68976;SDS011;56029;52.568;13.588;2024-03-08T10:07:58;24.35;;;11.95;;
68976;SDS011;56029;52.568;13.588;2024-03-08T10:10:24;24.20;;;12.37;;
68976;SDS011;56029;52.568;13.588;2024-03-08T10:12:49;27.93;;;12.27;;
68976;SDS011;56029;52.568;13.588;2024-03-08T10:15:17;27.92;;;12.95;;
68976;SDS011;56029;52.568;13.588;2024-03-08T10:17:42;29.27;;;13.23;;
68976;SDS011;56029;52.568;13.588;2024-03-08T10:20:18;29.60;;;13.93;;
68976;SDS011;56029;52.568;13.588;2024-03-08T10:22:44;26.48;;;12.52;;
68976;SDS011;56029;52.568;13.588;2024-03-08T10:25:11;28.50;;;13.75;;
68976;SDS011;56029;52.568;13.588;2024-03-08T10:27:37;26.70;;;12.60;;
68976;SDS011;56029;52.568;13.588;2024-03-08T10:30:04;25.70;;;12.43;;
68976;SDS011;56029;52.568;13.588;2024-03-08T10:32:39;26.38;;;12.85;;
68976;SDS011;56029;52.568;13.588;2024-03-08T10:35:05;23.90;;;11.30;;
68976;SDS011;56029;52.568;13.588;2024-03-08T10:37:31;26.37;;;12.03;;
68976;SDS011;56029;52.568;13.588;2024-03-08T10:40:01;25.50;;;11.95;;
68976;SDS011;56029;52.568;13.588;2024-03-08T10:42:28;25.95;;;12.77;;
68976;SDS011;56029;52.568;13.588;2024-03-08T10:45:05;24.60;;;11.87;;
68976;SDS011;56029;52.568;13.588;2024-03-08T10:47:34;22.08;;;11.38;;
68976;SDS011;56029;52.568;13.588;2024-03-08T10:52:44;24.25;;;10.95;;
68976;SDS011;56029;52.568;13.588;2024-03-08T10:55:10;23.73;;;11.83;;
68976;SDS011;56029;52.568;13.588;2024-03-08T10:57:38;23.17;;;11.63;;
68976;SDS011;56029;52.568;13.588;2024-03-08T11:00:05;24.23;;;11.65;;
68976;SDS011;56029;52.568;13.588;2024-03-08T11:02:32;25.38;;;10.98;;
68976;SDS011;56029;52.568;13.588;2024-03-08T11:04:57;24.33;;;10.93;;
68976;SDS011;56029;52.568;13.588;2024-03-08T11:07:23;22.15;;;10.75;;
68976;SDS011;56029;52.568;13.588;2024-03-08T11:09:50;21.73;;;11.00;;
68976;SDS011;56029;52.568;13.588;2024-03-08T11:12:27;24.23;;;11.25;;
68976;SDS011;56029;52.568;13.588;2024-03-08T11:14:53;24.73;;;11.73;;
68976;SDS011;56029;52.568;13.588;2024-03-08T11:17:27;22.20;;;11.30;;
68976;SDS011;56029;52.568;13.588;2024-03-08T11:20:12;23.95;;;12.35;;
68976;SDS011;56029;52.568;13.588;2024-03-08T11:22:38;24.25;;;11.75;;
68976;SDS011;56029;52.568;13.588;2024-03-08T11:25:04;24.83;;;12.07;;
68976;SDS011;56029;52.568;13.588;2024-03-08T11:27:33;24.33;;;11.63;;
68976;SDS011;56029;52.568;13.588;2024-03-08T11:30:03;24.08;;;11.40;;
68976;SDS011;56029;52.568;13.588;2024-03-08T11:32:30;24.67;;;11.57;;
68976;SDS011;56029;52.568;13.588;2024-03-08T11:34:56;26.67;;;11.67;;
68976;SDS011;56029;52.568;13.588;2024-03-08T11:37:21;24.97;;;11.93;;
68976;SDS011;56029;52.568;13.588;2024-03-08T11:39:48;23.50;;;12.38;;
68976;SDS011;56029;52.568;13.588;2024-03-08T11:42:14;24.83;;;12.40;;
68976;SDS011;56029;52.568;13.588;2024-03-08T11:44:40;26.98;;;12.82;;
68976;SDS011;56029;52.568;13.588;2024-03-08T11:47:08;24.73;;;12.20;;
68976;SDS011;56029;52.568;13.588;2024-03-08T11:49:35;25.05;;;12.32;;
68976;SDS011;56029;52.568;13.588;2024-03-08T11:52:00;22.27;;;10.83;;
68976;SDS011;56029;52.568;13.588;2024-03-08T11:54:26;22.27;;;10.80;;
68976;SDS011;56029;52.568;13.588;2024-03-08T11:56:52;24.37;;;10.47;;
68976;SDS011;56029;52.568;13.588;2024-03-08T11:59:17;21.80;;;10.52;;
68976;SDS011;56029;52.568;13.588;2024-03-08T12:01:43;23.00;;;11.67;;
68976;SDS011;56029;52.568;13.588;2024-03-08T12:04:11;22.08;;;10.85;;
68976;SDS011;56029;52.568;13.588;2024-03-08T12:06:38;23.17;;;11.37;;
68976;SDS011;56029;52.568;13.588;2024-03-08T12:09:11;25.05;;;11.98;;
68976;SDS011;56029;52.568;13.588;2024-03-08T12:11:37;23.25;;;11.45;;
68976;SDS011;56029;52.568;13.588;2024-03-08T12:14:03;21.95;;;11.02;;
68976;SDS011;56029;52.568;13.588;2024-03-08T12:16:29;21.47;;;10.47;;
68976;SDS011;56029;52.568;13.588;2024-03-08T12:18:55;22.75;;;10.82;;
68976;SDS011;56029;52.568;13.588;2024-03-08T12:21:20;23.88;;;11.52;;
68976;SDS011;56029;52.568;13.588;2024-03-08T12:23:46;23.03;;;11.23;;
68976;SDS011;56029;52.568;13.588;2024-03-08T12:26:12;24.17;;;11.98;;
68976;SDS011;56029;52.568;13.588;2024-03-08T12:28:43;23.47;;;11.47;;
68976;SDS011;56029;52.568;13.588;2024-03-08T12:31:11;22.48;;;11.35;;
68976;SDS011;56029;52.568;13.588;2024-03-08T12:33:54;21.92;;;10.90;;
68976;SDS011;56029;52.568;13.588;2024-03-08T12:36:20;24.27;;;11.57;;
68976;SDS011;56029;52.568;13.588;2024-03-08T12:38:46;22.95;;;11.73;;
68976;SDS011;56029;52.568;13.588;2024-03-08T12:41:12;23.43;;;11.90;;
68976;SDS011;56029;52.568;13.588;2024-03-08T12:43:38;28.95;;;13.90;;
68976;SDS011;56029;52.568;13.588;2024-03-08T12:46:03;26.13;;;12.27;;
68976;SDS011;56029;52.568;13.588;2024-03-08T12:48:33;23.40;;;12.60;;
68976;SDS011;56029;52.568;13.588;2024-03-08T12:50:59;24.13;;;12.00;;
68976;SDS011;56029;52.568;13.588;2024-03-08T12:53:25;27.77;;;12.30;;
68976;SDS011;56029;52.568;13.588;2024-03-08T12:55:50;24.00;;;12.03;;
68976;SDS011;56029;52.568;13.588;2024-03-08T12:58:16;20.23;;;11.05;;
68976;SDS011;56029;52.568;13.588;2024-03-08T13:00:42;35.47;;;13.30;;
68976;SDS011;56029;52.568;13.588;2024-03-08T13:03:07;26.27;;;12.25;;
68976;SDS011;56029;52.568;13.588;2024-03-08T13:05:33;26.07;;;12.47;;
68976;SDS011;56029;52.568;13.588;2024-03-08T13:07:59;23.73;;;11.82;;
68976;SDS011;56029;52.568;13.588;2024-03-08T13:10:24;22.13;;;11.13;;
68976;SDS011;56029;52.568;13.588;2024-03-08T13:12:50;22.75;;;11.32;;
68976;SDS011;56029;52.568;13.588;2024-03-08T13:15:16;24.63;;;11.97;;
68976;SDS011;56029;52.568;13.588;2024-03-08T13:17:41;24.92;;;12.48;;
68976;SDS011;56029;52.568;13.588;2024-03-08T13:20:07;23.37;;;12.53;;
68976;SDS011;56029;52.568;13.588;2024-03-08T13:22:34;26.00;;;12.55;;
68976;SDS011;56029;52.568;13.588;2024-03-08T13:24:59;25.83;;;12.30;;
68976;SDS011;56029;52.568;13.588;2024-03-08T13:27:25;25.67;;;12.43;;
68976;SDS011;56029;52.568;13.588;2024-03-08T13:29:50;25.50;;;13.23;;
68976;SDS011;56029;52.568;13.588;2024-03-08T13:32:16;24.50;;;12.40;;
68976;SDS011;56029;52.568;13.588;2024-03-08T13:34:43;23.97;;;12.80;;
68976;SDS011;56029;52.568;13.588;2024-03-08T13:37:09;26.70;;;13.43;;
68976;SDS011;56029;52.568;13.588;2024-03-08T13:39:36;25.08;;;13.25;;
68976;SDS011;56029;52.568;13.588;2024-03-08T13:42:01;25.00;;;12.68;;
68976;SDS011;56029;52.568;13.588;2024-03-08T13:44:27;26.03;;;12.63;;
68976;SDS011;56029;52.568;13.588;2024-03-08T13:46:53;24.33;;;11.80;;
68976;SDS011;56029;52.568;13.588;2024-03-08T13:49:18;25.00;;;12.82;;
68976;SDS011;56029;52.568;13.588;2024-03-08T13:51:44;25.00;;;12.37;;
68976;SDS011;56029;52.568;13.588;2024-03-08T13:54:09;27.10;;;13.20;;
68976;SDS011;56029;52.568;13.588;2024-03-08T13:56:35;25.17;;;13.40;;
68976;SDS011;56029;52.568;13.588;2024-03-08T13:59:00;24.13;;;12.33;;
68976;SDS011;56029;52.568;13.588;2024-03-08T14:01:26;26.80;;;13.07;;
68976;SDS011;56029;52.568;13.588;2024-03-08T14:03:52;24.20;;;12.30;;
68976;SDS011;56029;52.568;13.588;2024-03-08T14:06:17;21.13;;;11.27;;
68976;SDS011;56029;52.568;13.588;2024-03-08T14:08:43;24.40;;;11.33;;
68976;SDS011;56029;52.568;13.588;2024-03-08T14:11:08;24.38;;;11.70;;